Terminal Aerodrome Forecast
Issued by NWS Melbourne, FL

Home | Current Version | Previous Version | Text Only | Print | Product List | Glossary On
Versions: 1 2 3 4 5 6 7 8 9 10 11 12 13 14 15 16 17 18 19 20 21 22 23 24 25 26 27 28 29 30 31 32 33 34 35 36 37 38 39 40 41 42 43 44 45
000
FTUS42 KMLB 190130 AAA
TAFVRB
TAF AMD
KVRB 190130Z 1902/1924 19004KT P6SM VCTS SCT035CB BKN090 BKN250
      TEMPO 1902/1903 3SM TSRA BKN030CB OVC060
     FM190300 22003KT P6SM FEW030 SCT100 BKN200
     FM191500 22010KT P6SM BKN035
     FM191800 22010KT P6SM VCTS SCT035CB BKN060
      TEMPO 1919/1922 3SM TSRA BKN030CB=

USA.gov is the U.S. government's official web portal to all federal, state and local government web resources and services.